createdAt,value
2023-02-13T00:00:09.281Z,0
2023-02-13T00:01:09.886Z,0
2023-02-13T00:02:10.560Z,0
2023-02-13T00:03:11.185Z,0
2023-02-13T00:04:11.772Z,0
2023-02-13T00:05:12.372Z,0
2023-02-13T00:06:12.973Z,0
2023-02-13T00:07:13.582Z,0
2023-02-13T00:08:14.186Z,0
2023-02-13T00:09:14.890Z,0
2023-02-13T00:10:15.476Z,0
2023-02-13T00:11:16.083Z,0
2023-02-13T00:12:16.781Z,0
2023-02-13T00:13:17.377Z,0
2023-02-13T00:14:17.981Z,0
2023-02-13T00:15:18.617Z,0
2023-02-13T00:16:19.208Z,0
2023-02-13T00:17:19.885Z,0
2023-02-13T00:18:20.490Z,0
2023-02-13T00:19:21.085Z,0
2023-02-13T00:20:21.698Z,0
2023-02-13T00:21:22.288Z,0
2023-02-13T00:22:22.884Z,0
2023-02-13T00:23:23.532Z,0
2023-02-13T00:24:24.130Z,0
2023-02-13T00:25:24.875Z,0
2023-02-13T00:29:20.925Z,0
2023-02-13T00:30:22.382Z,0
2023-02-13T00:31:23.193Z,0
2023-02-13T00:32:23.776Z,0
2023-02-13T00:33:25.220Z,0
2023-02-13T00:34:25.869Z,0
2023-02-13T00:35:26.468Z,0
2023-02-13T00:36:27.113Z,0
2023-02-13T00:37:27.715Z,0
2023-02-13T00:38:28.313Z,0
2023-02-13T00:39:28.910Z,0
2023-02-13T00:40:29.507Z,0
2023-02-13T00:41:30.111Z,0
2023-02-13T00:42:30.706Z,0
2023-02-13T00:43:31.305Z,0
2023-02-13T00:44:31.968Z,0
2023-02-13T00:45:32.569Z,0
2023-02-13T00:46:33.260Z,0
2023-02-13T00:47:33.901Z,0
2023-02-13T00:49:49.925Z,0
2023-02-13T00:50:50.529Z,0
2023-02-13T00:51:51.125Z,0
2023-02-13T00:52:52.526Z,0
2023-02-13T00:53:53.130Z,0
2023-02-13T00:54:53.745Z,0
2023-02-13T00:55:54.338Z,0
2023-02-13T00:56:54.931Z,0
2023-02-13T00:57:55.539Z,0
2023-02-13T00:58:56.126Z,0
2023-02-13T00:59:56.742Z,0
2023-02-13T01:00:57.527Z,0
2023-02-13T01:01:58.276Z,0
2023-02-13T01:02:58.869Z,0
2023-02-13T01:03:59.580Z,0
2023-02-13T01:05:00.214Z,0
2023-02-13T01:06:00.806Z,0
2023-02-13T01:07:01.411Z,0
2023-02-13T01:08:02.023Z,0
2023-02-13T01:09:02.617Z,0
2023-02-13T01:10:03.213Z,0
2023-02-13T01:11:03.823Z,0
2023-02-13T01:12:04.418Z,0
2023-02-13T01:13:05.015Z,0
2023-02-13T01:14:06.415Z,0
2023-02-13T01:15:07.020Z,0
2023-02-13T01:16:07.666Z,0
2023-02-13T01:17:08.288Z,0
2023-02-13T01:18:08.882Z,0
2023-02-13T01:19:09.484Z,0
2023-02-13T01:20:10.087Z,0
2023-02-13T01:21:10.691Z,0
2023-02-13T01:22:11.296Z,0
2023-02-13T01:23:11.902Z,0
2023-02-13T01:24:12.485Z,0
2023-02-13T01:25:13.090Z,0
2023-02-13T01:26:13.691Z,0
2023-02-13T01:27:15.304Z,0
2023-02-13T01:28:15.959Z,0
2023-02-13T01:29:16.569Z,0
2023-02-13T01:30:17.165Z,0
2023-02-13T01:31:17.841Z,0
2023-02-13T01:32:18.506Z,0
2023-02-13T01:33:19.106Z,0
2023-02-13T01:34:19.764Z,0
2023-02-13T01:35:20.355Z,0
2023-02-13T01:36:21.158Z,0
2023-02-13T01:37:21.753Z,0
2023-02-13T01:38:22.369Z,0
2023-02-13T01:39:22.957Z,0
2023-02-13T01:40:23.550Z,0
2023-02-13T01:41:24.160Z,0
2023-02-13T01:42:24.760Z,0
2023-02-13T01:43:26.282Z,0
2023-02-13T01:44:26.881Z,0
2023-02-13T01:45:27.505Z,0
2023-02-13T01:46:28.944Z,0
2023-02-13T01:47:29.550Z,0
2023-02-13T01:48:32.189Z,0
2023-02-13T01:49:31.807Z,0
2023-02-13T01:50:32.404Z,0
2023-02-13T01:51:33.002Z,0
2023-02-13T01:52:34.450Z,0
2023-02-13T01:53:35.053Z,0
2023-02-13T01:54:35.720Z,0
2023-02-13T01:55:36.327Z,0
2023-02-13T01:56:36.971Z,0
2023-02-13T01:57:37.565Z,0
2023-02-13T01:58:38.169Z,0
2023-02-13T01:59:38.772Z,0
2023-02-13T02:00:39.377Z,0
2023-02-13T02:01:40.052Z,0
2023-02-13T02:02:40.755Z,0
2023-02-13T02:03:41.341Z,0
2023-02-13T02:04:41.945Z,0
2023-02-13T02:05:42.547Z,0
2023-02-13T02:06:43.151Z,0
2023-02-13T02:07:44.546Z,0
2023-02-13T02:08:45.159Z,0
2023-02-13T02:09:45.768Z,0
2023-02-13T02:10:46.367Z,0
2023-02-13T02:11:46.971Z,0
2023-02-13T02:12:47.570Z,0
2023-02-13T02:13:48.170Z,0
2023-02-13T02:14:48.776Z,0
2023-02-13T02:15:49.393Z,0
2023-02-13T02:16:50.009Z,0
2023-02-13T02:17:50.612Z,0
2023-02-13T02:18:51.234Z,0
2023-02-13T02:19:51.820Z,0
2023-02-13T02:20:52.412Z,0
2023-02-13T02:21:53.014Z,0
2023-02-13T02:22:53.614Z,0
2023-02-13T02:23:54.210Z,0
2023-02-13T02:24:54.805Z,0
2023-02-13T02:25:55.405Z,0
2023-02-13T02:26:56.008Z,0
2023-02-13T02:27:56.620Z,0
2023-02-13T02:28:57.217Z,0
2023-02-13T02:29:57.968Z,0
2023-02-13T02:30:59.004Z,0
2023-02-13T02:31:59.787Z,0
2023-02-13T02:33:00.387Z,0
2023-02-13T02:34:01.055Z,0
2023-02-13T02:35:01.669Z,0
2023-02-13T02:36:02.266Z,0
2023-02-13T02:37:02.848Z,0
2023-02-13T02:38:03.446Z,0
2023-02-13T02:39:04.038Z,0
2023-02-13T02:40:04.644Z,0
2023-02-13T02:41:05.244Z,0
2023-02-13T02:42:05.867Z,0
2023-02-13T02:43:07.309Z,0
2023-02-13T02:44:07.917Z,0
2023-02-13T02:45:08.523Z,0
2023-02-13T02:46:09.192Z,0
2023-02-13T02:47:09.860Z,0
2023-02-13T02:48:10.455Z,0
2023-02-13T02:49:11.056Z,0
2023-02-13T02:50:11.728Z,0
2023-02-13T02:51:12.328Z,0
2023-02-13T02:52:12.926Z,0
2023-02-13T02:53:13.534Z,0
2023-02-13T02:54:14.132Z,0
2023-02-13T02:55:14.729Z,0
2023-02-13T02:56:16.194Z,0
2023-02-13T02:57:16.842Z,0
2023-02-13T02:58:17.438Z,0
2023-02-13T02:59:18.032Z,0
2023-02-13T03:00:18.638Z,0
2023-02-13T03:01:32.296Z,0
2023-02-13T03:02:32.888Z,0
2023-02-13T03:03:33.485Z,0
2023-02-13T03:04:34.228Z,0
2023-02-13T03:05:34.829Z,0
2023-02-13T03:06:35.488Z,0
2023-02-13T03:07:36.090Z,0
2023-02-13T03:08:36.687Z,0
2023-02-13T03:09:37.286Z,0
2023-02-13T03:10:37.874Z,0
2023-02-13T03:11:38.470Z,0
2023-02-13T03:12:39.072Z,0
2023-02-13T03:13:39.668Z,0
2023-02-13T03:14:40.277Z,0
2023-02-13T03:15:40.875Z,0
2023-02-13T03:25:40.093Z,0
2023-02-13T03:26:40.691Z,0
2023-02-13T03:27:41.295Z,0
2023-02-13T03:28:41.899Z,0
2023-02-13T03:29:43.120Z,0
2023-02-13T03:30:43.746Z,0
2023-02-13T03:31:44.376Z,0
2023-02-13T03:32:44.984Z,0
2023-02-13T03:33:45.579Z,0
2023-02-13T03:34:46.184Z,0
2023-02-13T03:35:46.800Z,0
2023-02-13T03:36:47.387Z,0
2023-02-13T03:37:48.050Z,0
2023-02-13T03:38:48.654Z,0
2023-02-13T03:39:49.259Z,0
2023-02-13T03:40:49.854Z,0
2023-02-13T03:41:50.461Z,0
2023-02-13T03:42:51.059Z,0
2023-02-13T03:43:51.653Z,0
2023-02-13T03:44:52.248Z,0
2023-02-13T03:45:52.928Z,0
2023-02-13T03:46:53.554Z,0
2023-02-13T03:47:54.213Z,0
2023-02-13T03:48:54.907Z,0
2023-02-13T03:49:55.504Z,0
2023-02-13T03:50:56.331Z,0
2023-02-13T03:51:57.066Z,0
2023-02-13T03:52:57.867Z,0
2023-02-13T03:53:58.468Z,0
2023-02-13T03:54:59.070Z,0
2023-02-13T03:55:59.668Z,0
2023-02-13T03:57:01.117Z,0
2023-02-13T03:58:01.716Z,0
2023-02-13T03:59:02.311Z,0
2023-02-13T04:00:02.922Z,0
2023-02-13T04:01:03.537Z,0
2023-02-13T04:02:04.152Z,0
2023-02-13T04:03:05.628Z,0
2023-02-13T04:04:06.295Z,0
2023-02-13T04:05:06.887Z,0
2023-02-13T04:06:07.485Z,0
2023-02-13T04:07:08.078Z,0
2023-02-13T04:08:08.725Z,0
2023-02-13T04:09:09.318Z,0
2023-02-13T04:10:09.922Z,0
2023-02-13T04:11:10.575Z,0
2023-02-13T04:12:11.178Z,0
2023-02-13T04:13:11.780Z,0
2023-02-13T04:14:12.376Z,0
2023-02-13T04:15:12.978Z,0
2023-02-13T04:16:13.576Z,0
2023-02-13T04:17:14.169Z,0
2023-02-13T04:34:25.997Z,0
2023-02-13T04:35:26.598Z,0
2023-02-13T04:36:27.203Z,0
2023-02-13T04:37:27.792Z,0
2023-02-13T04:38:28.386Z,0
2023-02-13T04:39:28.980Z,0
2023-02-13T04:40:29.579Z,0
2023-02-13T04:41:30.174Z,0
2023-02-13T04:42:30.769Z,0
2023-02-13T04:43:31.377Z,0
2023-02-13T04:44:32.039Z,0
2023-02-13T04:45:32.634Z,0
2023-02-13T04:46:33.296Z,0
2023-02-13T04:47:33.891Z,0
2023-02-13T04:48:34.481Z,0
2023-02-13T04:49:35.879Z,0
2023-02-13T04:50:36.476Z,0
2023-02-13T04:51:37.118Z,0
2023-02-13T04:52:37.728Z,0
2023-02-13T04:53:38.319Z,0
2023-02-13T04:54:38.914Z,0
2023-02-13T04:55:39.559Z,0
2023-02-13T04:56:40.159Z,0
2023-02-13T04:57:41.633Z,0
2023-02-13T04:58:42.283Z,0
2023-02-13T04:59:42.884Z,0
2023-02-13T05:00:43.536Z,0
2023-02-13T05:01:44.173Z,0
2023-02-13T05:02:44.788Z,0
2023-02-13T05:03:45.397Z,0
2023-02-13T05:04:46.179Z,0
2023-02-13T05:05:46.700Z,0
2023-02-13T05:06:47.306Z,0
2023-02-13T05:07:47.909Z,0
2023-02-13T05:08:48.560Z,0
2023-02-13T05:09:49.154Z,0
2023-02-13T05:10:49.746Z,0
2023-02-13T05:11:50.354Z,0
2023-02-13T05:12:50.956Z,0
2023-02-13T05:13:51.631Z,0
2023-02-13T05:14:52.225Z,0
2023-02-13T05:15:52.873Z,0
2023-02-13T05:16:54.334Z,0
2023-02-13T05:17:54.931Z,0
2023-02-13T05:18:55.524Z,0
2023-02-13T05:19:56.134Z,0
2023-02-13T05:20:56.912Z,0
2023-02-13T05:24:17.803Z,0
2023-02-13T05:25:18.092Z,0
2023-02-13T05:26:18.696Z,0
2023-02-13T05:27:19.289Z,0
2023-02-13T05:28:19.960Z,0
2023-02-13T05:29:20.597Z,0
2023-02-13T05:30:21.174Z,0
2023-02-13T05:31:21.866Z,0
2023-02-13T05:32:22.524Z,0
2023-02-13T05:33:23.122Z,0
2023-02-13T05:34:23.725Z,0
2023-02-13T05:35:24.315Z,0
2023-02-13T05:36:24.917Z,0
2023-02-13T05:37:25.517Z,0
2023-02-13T05:38:26.117Z,0
2023-02-13T05:39:26.784Z,0
2023-02-13T05:40:27.382Z,0
2023-02-13T05:41:27.980Z,0
2023-02-13T05:42:28.586Z,0
2023-02-13T05:43:29.181Z,0
2023-02-13T05:44:29.834Z,0
2023-02-13T05:45:30.431Z,0
2023-02-13T05:46:31.058Z,0
2023-02-13T05:47:31.644Z,0
2023-02-13T05:48:32.244Z,0
2023-02-13T05:49:32.847Z,0
2023-02-13T05:50:33.443Z,0
2023-02-13T05:51:34.044Z,0
2023-02-13T05:52:34.658Z,0
2023-02-13T05:53:35.381Z,0
2023-02-13T05:54:36.058Z,0
2023-02-13T05:55:36.651Z,0
2023-02-13T05:56:37.252Z,0
2023-02-13T05:57:37.904Z,0
2023-02-13T05:58:38.506Z,0
2023-02-13T06:04:45.450Z,0
2023-02-13T06:05:46.053Z,0
2023-02-13T06:06:46.644Z,0
2023-02-13T06:07:47.251Z,0
2023-02-13T06:08:47.900Z,0
2023-02-13T06:12:44.175Z,0
2023-02-13T06:13:45.555Z,0
2023-02-13T06:14:46.213Z,0
2023-02-13T06:15:46.838Z,0
2023-02-13T06:16:47.473Z,0
2023-02-13T06:17:48.086Z,0
2023-02-13T06:18:48.679Z,0
2023-02-13T06:19:49.282Z,0
2023-02-13T06:20:50.000Z,0
2023-02-13T06:21:50.595Z,0
2023-02-13T06:22:51.245Z,0
2023-02-13T06:23:51.839Z,0
2023-02-13T06:24:52.433Z,0
2023-02-13T06:25:53.878Z,0
2023-02-13T06:26:54.542Z,0
2023-02-13T06:27:55.140Z,0
2023-02-13T06:28:55.732Z,0
2023-02-13T06:29:56.338Z,0
2023-02-13T06:30:57.422Z,0
2023-02-13T06:31:58.503Z,0
2023-02-13T06:32:59.105Z,0
2023-02-13T06:33:59.699Z,0
2023-02-13T06:35:00.392Z,0
2023-02-13T06:36:00.997Z,0
2023-02-13T06:37:01.640Z,0
2023-02-13T06:38:02.290Z,0
2023-02-13T06:39:02.882Z,0
2023-02-13T06:40:03.484Z,0
2023-02-13T06:41:04.074Z,0
2023-02-13T06:42:04.669Z,0
2023-02-13T06:43:05.264Z,0
2023-02-13T06:44:05.857Z,0
2023-02-13T06:45:06.461Z,0
2023-02-13T06:46:07.053Z,0
2023-02-13T06:47:07.659Z,0
2023-02-13T06:48:08.264Z,0
2023-02-13T06:49:08.861Z,0
2023-02-13T06:50:09.467Z,0
2023-02-13T06:51:10.090Z,0
2023-02-13T06:52:10.728Z,0
2023-02-13T06:53:11.331Z,0
2023-02-13T06:54:11.932Z,0
2023-02-13T06:55:12.579Z,0
2023-02-13T06:57:43.178Z,0
2023-02-13T06:58:43.786Z,0
2023-02-13T06:59:44.391Z,0
2023-02-13T07:00:45.015Z,0
2023-02-13T07:01:45.626Z,0
2023-02-13T07:02:46.269Z,0
2023-02-13T07:03:46.874Z,0
2023-02-13T07:04:47.475Z,0
2023-02-13T07:05:48.075Z,0
2023-02-13T07:06:48.671Z,0
2023-02-13T07:07:49.276Z,0
2023-02-13T07:08:49.868Z,0
2023-02-13T07:09:50.469Z,0
2023-02-13T07:10:51.063Z,0
2023-02-13T07:11:52.421Z,0
2023-02-13T07:13:04.933Z,0
2023-02-13T07:13:54.682Z,0
2023-02-13T07:14:55.266Z,0
2023-02-13T07:15:55.901Z,0
2023-02-13T07:16:56.518Z,0
2023-02-13T07:17:57.108Z,0
2023-02-13T07:18:57.711Z,0
2023-02-13T07:19:58.318Z,0
2023-02-13T07:20:59.110Z,0
2023-02-13T07:21:59.842Z,0
2023-02-13T07:23:00.489Z,0
2023-02-13T07:24:01.086Z,0
2023-02-13T07:25:01.710Z,0
2023-02-13T07:26:02.341Z,0
2023-02-13T07:27:02.942Z,0
2023-02-13T07:28:03.585Z,0
2023-02-13T07:29:11.131Z,0
2023-02-13T07:30:05.800Z,0
2023-02-13T07:31:06.492Z,0
2023-02-13T07:32:07.253Z,0
2023-02-13T07:33:07.870Z,0
2023-02-13T07:34:08.477Z,0
2023-02-13T07:35:09.089Z,0
2023-02-13T07:36:09.685Z,0
2023-02-13T08:17:58.784Z,0
2023-02-13T08:18:59.384Z,0
2023-02-13T08:19:59.993Z,0
2023-02-13T08:21:01.471Z,0
2023-02-13T08:22:02.108Z,0
2023-02-13T08:23:02.987Z,0
2023-02-13T08:34:07.618Z,4
2023-02-13T08:35:08.313Z,4
2023-02-13T08:36:08.908Z,4
2023-02-13T08:37:09.521Z,4
2023-02-13T08:38:10.971Z,4
2023-02-13T08:39:11.567Z,4
2023-02-13T08:40:12.164Z,4
2023-02-13T08:41:12.769Z,4
2023-02-13T08:42:15.867Z,4
2023-02-13T08:43:14.973Z,4
2023-02-13T08:44:16.406Z,4
2023-02-13T08:45:17.008Z,4
2023-02-13T08:46:17.686Z,4
2023-02-13T08:47:31.247Z,4
2023-02-13T08:48:31.851Z,4
2023-02-13T08:49:32.481Z,4
2023-02-13T08:50:34.635Z,4
2023-02-13T08:51:34.712Z,4
2023-02-13T08:52:35.320Z,4
2023-02-13T08:53:35.916Z,4
2023-02-13T08:54:36.529Z,4
2023-02-13T08:55:37.111Z,4
2023-02-13T08:56:37.707Z,4
2023-02-13T08:57:38.318Z,4
2023-02-13T08:58:38.914Z,4
2023-02-13T08:59:39.523Z,4
2023-02-13T09:00:40.129Z,0
2023-02-13T09:01:40.832Z,0
2023-02-13T09:02:41.485Z,0
2023-02-13T09:03:42.084Z,0
2023-02-13T09:04:42.685Z,4
2023-02-13T09:05:43.331Z,4
2023-02-13T09:06:43.930Z,4
2023-02-13T09:07:44.541Z,4
2023-02-13T09:08:45.134Z,4
2023-02-13T09:09:45.748Z,4
2023-02-13T09:10:46.388Z,4
2023-02-13T09:11:46.990Z,4
2023-02-13T09:12:47.585Z,4
2023-02-13T09:13:48.190Z,4
2023-02-13T09:14:48.885Z,4
2023-02-13T09:15:49.462Z,4
2023-02-13T09:16:50.093Z,4
2023-02-13T09:17:50.681Z,4
2023-02-13T09:18:51.275Z,8
2023-02-13T09:19:51.886Z,8
2023-02-13T09:20:52.557Z,8
2023-02-13T09:21:53.285Z,8
2023-02-13T09:22:53.946Z,8
2023-02-13T09:23:54.544Z,8
2023-02-13T09:24:55.294Z,8
2023-02-13T09:25:56.314Z,4
2023-02-13T09:26:57.109Z,4
2023-02-13T09:27:57.772Z,4
2023-02-13T09:28:58.365Z,8
2023-02-13T09:29:58.966Z,4
2023-02-13T09:30:59.657Z,4
2023-02-13T09:32:00.388Z,4
2023-02-13T09:33:01.030Z,4
2023-02-13T09:34:01.623Z,4
2023-02-13T09:35:02.228Z,4
2023-02-13T09:36:02.869Z,4
2023-02-13T09:37:03.462Z,4
2023-02-13T09:38:04.057Z,4
2023-02-13T09:39:04.655Z,4
2023-02-13T09:40:05.249Z,4
2023-02-13T09:41:05.898Z,4
2023-02-13T09:42:06.494Z,4
2023-02-13T09:43:07.092Z,4
2023-02-13T09:44:07.696Z,4
2023-02-13T09:45:08.301Z,8
2023-02-13T09:46:08.999Z,8
2023-02-13T09:47:09.715Z,8
2023-02-13T09:48:10.387Z,8
2023-02-13T09:49:10.975Z,8
2023-02-13T09:50:11.585Z,8
2023-02-13T09:51:12.178Z,8
2023-02-13T09:52:12.784Z,8
2023-02-13T09:53:13.391Z,8
2023-02-13T09:54:13.987Z,8
2023-02-13T09:55:14.583Z,8
2023-02-13T09:56:15.175Z,8
2023-02-13T09:57:15.781Z,12
2023-02-13T09:58:16.413Z,12
2023-02-13T09:59:17.009Z,8
2023-02-13T10:00:17.631Z,8
2023-02-13T10:01:18.223Z,8
2023-02-13T10:02:18.823Z,8
2023-02-13T10:03:19.426Z,12
2023-02-13T10:04:20.015Z,12
2023-02-13T10:05:20.662Z,12
2023-02-13T10:06:21.268Z,8
2023-02-13T10:07:21.869Z,12
2023-02-13T10:08:22.477Z,12
2023-02-13T10:09:23.144Z,12
2023-02-13T10:10:23.746Z,8
2023-02-13T10:11:24.351Z,12
2023-02-13T10:12:24.952Z,12
2023-02-13T10:13:25.555Z,12
2023-02-13T10:14:26.279Z,12
2023-02-13T10:15:26.905Z,16
2023-02-13T10:16:27.621Z,16
2023-02-13T10:17:28.213Z,16
2023-02-13T10:18:28.808Z,12
2023-02-13T10:19:29.422Z,16
2023-02-13T10:20:30.093Z,16
2023-02-13T10:21:30.740Z,12
2023-02-13T10:22:31.392Z,20
2023-02-13T10:23:31.994Z,20
2023-02-13T10:24:32.593Z,20
2023-02-13T10:25:33.196Z,20
2023-02-13T10:26:33.791Z,20
2023-02-13T10:27:34.435Z,20
2023-02-13T10:28:35.107Z,20
2023-02-13T10:29:35.737Z,20
2023-02-13T10:30:36.333Z,20
2023-02-13T10:31:37.011Z,20
2023-02-13T10:32:37.611Z,20
2023-02-13T10:33:38.203Z,20
2023-02-13T10:34:38.805Z,20
2023-02-13T10:35:39.418Z,20
2023-02-13T10:36:40.009Z,20
2023-02-13T10:37:40.606Z,20
2023-02-13T10:38:41.216Z,20
2023-02-13T10:39:41.871Z,20
2023-02-13T10:40:42.677Z,20
2023-02-13T10:41:43.285Z,24
2023-02-13T10:42:43.890Z,24
2023-02-13T10:43:44.553Z,20
2023-02-13T10:44:45.158Z,20
2023-02-13T10:45:45.753Z,24
2023-02-13T10:46:46.448Z,24
2023-02-13T10:47:48.485Z,20
2023-02-13T10:48:49.082Z,20
2023-02-13T10:49:49.670Z,24
2023-02-13T10:50:50.279Z,20
2023-02-13T10:51:50.881Z,16
2023-02-13T10:52:51.525Z,16
2023-02-13T10:53:52.130Z,16
2023-02-13T10:54:52.739Z,16
2023-02-13T10:55:53.336Z,16
2023-02-13T10:56:53.942Z,20
2023-02-13T10:57:54.545Z,20
2023-02-13T10:58:55.136Z,16
2023-02-13T10:59:55.737Z,20
2023-02-13T11:00:56.354Z,16
2023-02-13T11:01:56.951Z,16
2023-02-13T11:02:57.549Z,16
2023-02-13T11:03:58.184Z,16
2023-02-13T11:04:58.778Z,16
2023-02-13T11:05:59.696Z,16
2023-02-13T11:07:00.061Z,12
2023-02-13T11:08:00.651Z,12
2023-02-13T11:09:01.254Z,12
2023-02-13T11:10:01.869Z,16
2023-02-13T11:11:02.468Z,12
2023-02-13T11:12:03.074Z,16
2023-02-13T11:13:03.675Z,12
2023-02-13T11:14:04.271Z,12
2023-02-13T11:15:04.873Z,12
2023-02-13T11:16:05.581Z,12
2023-02-13T11:17:06.222Z,12
2023-02-13T11:18:07.021Z,12
2023-02-13T11:19:07.694Z,12
2023-02-13T11:20:08.320Z,12
2023-02-13T11:21:09.252Z,12
2023-02-13T11:22:09.584Z,12
2023-02-13T11:23:10.224Z,12
2023-02-13T11:24:10.818Z,12
2023-02-13T11:25:11.463Z,12
2023-02-13T11:26:12.063Z,12
2023-02-13T11:27:12.668Z,12
2023-02-13T11:28:13.906Z,12
2023-02-13T11:29:14.496Z,12
2023-02-13T11:30:15.095Z,12
2023-02-13T11:31:15.818Z,12
2023-02-13T11:32:16.627Z,12
2023-02-13T11:33:17.280Z,12
2023-02-13T11:34:17.877Z,12
2023-02-13T11:35:18.474Z,12
2023-02-13T11:36:19.082Z,12
2023-02-13T11:37:19.675Z,12
2023-02-13T11:38:20.274Z,12
2023-02-13T11:39:20.886Z,12
2023-02-13T11:40:21.533Z,12
2023-02-13T11:41:22.130Z,12
2023-02-13T11:42:22.790Z,16
2023-02-13T11:43:23.449Z,16
2023-02-13T11:44:24.055Z,16
2023-02-13T11:45:24.664Z,12
2023-02-13T11:46:25.446Z,16
2023-02-13T11:47:26.085Z,12
2023-02-13T11:48:26.681Z,12
2023-02-13T12:04:41.082Z,12
2023-02-13T12:05:41.682Z,12
2023-02-13T12:06:42.279Z,12
2023-02-13T12:07:43.775Z,12
2023-02-13T12:08:44.378Z,12
2023-02-13T12:09:44.984Z,12
2023-02-13T12:10:45.588Z,12
2023-02-13T12:11:46.256Z,16
2023-02-13T12:12:46.913Z,16
2023-02-13T12:13:47.513Z,16
2023-02-13T12:14:48.107Z,12
2023-02-13T12:15:48.752Z,12
2023-02-13T12:16:49.364Z,16
2023-02-13T12:17:49.943Z,16
2023-02-13T12:18:50.547Z,16
2023-02-13T12:19:51.152Z,16
2023-02-13T12:20:51.745Z,16
2023-02-13T12:21:52.341Z,16
2023-02-13T12:22:52.950Z,16
2023-02-13T12:23:55.390Z,16
2023-02-13T12:24:55.986Z,12
2023-02-13T12:25:56.999Z,12
2023-02-13T12:26:57.760Z,16
2023-02-13T12:27:58.458Z,16
2023-02-13T12:28:59.068Z,16
2023-02-13T12:29:59.673Z,16
2023-02-13T12:31:01.449Z,20
2023-02-13T12:32:02.407Z,20
2023-02-13T12:33:03.919Z,20
2023-02-13T12:34:04.523Z,20
2023-02-13T12:35:05.151Z,20
2023-02-13T12:36:05.787Z,16
2023-02-13T12:37:06.389Z,20
2023-02-13T12:38:06.988Z,16
2023-02-13T12:39:07.600Z,16
2023-02-13T12:40:08.280Z,16
2023-02-13T12:41:09.061Z,16
2023-02-13T12:42:09.656Z,16
2023-02-13T12:43:10.262Z,16
2023-02-13T12:44:10.869Z,16
2023-02-13T12:45:11.458Z,16
2023-02-13T12:46:12.140Z,16
2023-02-13T12:47:12.730Z,16
2023-02-13T12:48:13.326Z,16
2023-02-13T12:49:13.933Z,16
2023-02-13T12:50:14.621Z,16
2023-02-13T12:51:15.218Z,16
2023-02-13T12:52:15.814Z,20
2023-02-13T12:53:16.415Z,16
2023-02-13T12:54:17.079Z,16
2023-02-13T12:55:17.680Z,16
2023-02-13T12:56:18.278Z,16
2023-02-13T12:57:18.902Z,16
2023-02-13T12:58:19.500Z,12
2023-02-13T12:59:20.111Z,12
2023-02-13T13:00:20.707Z,16
2023-02-13T13:01:21.368Z,16
2023-02-13T13:02:21.967Z,16
2023-02-13T13:03:22.573Z,16
2023-02-13T13:04:23.246Z,16
2023-02-13T13:05:23.849Z,16
2023-02-13T13:06:24.558Z,16
2023-02-13T13:07:25.161Z,16
2023-02-13T13:08:25.763Z,16
2023-02-13T13:09:26.371Z,12
2023-02-13T13:10:26.993Z,16
2023-02-13T13:11:27.636Z,16
2023-02-13T13:12:28.245Z,16
2023-02-13T13:13:28.836Z,16
2023-02-13T13:14:29.432Z,16
2023-02-13T13:15:30.051Z,16
2023-02-13T13:16:30.762Z,16
2023-02-13T13:17:31.366Z,12
2023-02-13T13:18:32.822Z,12
2023-02-13T13:19:33.426Z,8
2023-02-13T13:20:34.056Z,12
2023-02-13T13:21:34.728Z,16
2023-02-13T13:22:35.338Z,16
2023-02-13T13:23:36.006Z,12
2023-02-13T13:24:36.611Z,12
2023-02-13T13:25:37.235Z,12
2023-02-13T13:26:37.813Z,12
2023-02-13T13:27:38.408Z,16
2023-02-13T13:28:39.009Z,12
2023-02-13T13:29:39.667Z,12
2023-02-13T13:30:40.300Z,12
2023-02-13T13:31:41.088Z,12
2023-02-13T13:32:41.609Z,12
2023-02-13T13:33:42.294Z,12
2023-02-13T13:34:42.939Z,12
2023-02-13T13:35:43.540Z,8
2023-02-13T13:36:44.139Z,12
2023-02-13T13:37:45.585Z,12
2023-02-13T13:38:46.183Z,8
2023-02-13T13:39:46.779Z,12
2023-02-13T13:40:47.382Z,12
2023-02-13T13:41:47.981Z,8
2023-02-13T13:42:48.588Z,12
2023-02-13T13:43:49.191Z,12
2023-02-13T13:44:50.594Z,12
2023-02-13T13:45:51.249Z,12
2023-02-13T13:46:51.832Z,12
2023-02-13T13:47:52.488Z,16
2023-02-13T13:48:53.082Z,16
2023-02-13T13:49:54.066Z,12
2023-02-13T13:50:54.684Z,12
2023-02-13T13:51:55.358Z,12
2023-02-13T13:52:55.931Z,8
2023-02-13T13:53:56.648Z,8
2023-02-13T13:54:57.326Z,12
2023-02-13T13:55:57.915Z,12
2023-02-13T13:56:58.512Z,12
2023-02-13T13:57:59.119Z,12
2023-02-13T13:58:59.714Z,16
2023-02-13T14:00:00.324Z,16
2023-02-13T14:01:01.078Z,20
2023-02-13T14:02:01.727Z,16
2023-02-13T14:03:02.334Z,20
2023-02-13T14:04:02.939Z,16
2023-02-13T14:05:03.542Z,16
2023-02-13T14:06:04.164Z,12
2023-02-13T14:07:21.339Z,16
2023-02-13T14:08:21.945Z,12
2023-02-13T14:09:22.543Z,12
2023-02-13T14:10:23.201Z,16
2023-02-13T14:11:23.804Z,16
2023-02-13T14:12:24.420Z,16
2023-02-13T14:13:25.078Z,16
2023-02-13T14:14:25.671Z,16
2023-02-13T14:15:26.323Z,20
2023-02-13T14:16:26.945Z,20
2023-02-13T14:17:27.542Z,20
2023-02-13T14:18:28.146Z,16
2023-02-13T14:19:28.740Z,20
2023-02-13T14:20:29.344Z,16
2023-02-13T14:21:29.968Z,20
2023-02-13T14:22:30.603Z,20
2023-02-13T14:23:31.207Z,20
2023-02-13T14:24:31.794Z,20
2023-02-13T14:25:32.400Z,24
2023-02-13T14:26:33.007Z,28
2023-02-13T14:27:33.668Z,32
2023-02-13T14:28:34.246Z,32
2023-02-13T14:29:34.846Z,32
2023-02-13T14:30:35.444Z,32
2023-02-13T14:31:36.153Z,36
2023-02-13T14:32:36.762Z,32
2023-02-13T14:33:37.403Z,36
2023-02-13T14:34:37.996Z,36
2023-02-13T14:35:38.590Z,40
2023-02-13T14:36:40.047Z,36
2023-02-13T14:37:40.705Z,36
2023-02-13T14:38:42.150Z,40
2023-02-13T14:39:42.746Z,40
2023-02-13T14:40:43.443Z,36
2023-02-13T14:41:44.218Z,40
2023-02-13T14:42:44.822Z,40
2023-02-13T14:43:45.425Z,48
2023-02-13T14:44:46.023Z,40
2023-02-13T14:45:46.619Z,48
2023-02-13T14:46:48.866Z,48
2023-02-13T14:47:48.813Z,48
2023-02-13T14:48:49.429Z,48
2023-02-13T14:49:50.823Z,44
2023-02-13T14:50:51.423Z,36
2023-02-13T14:51:52.100Z,40
2023-02-13T14:52:52.693Z,44
2023-02-13T14:53:53.289Z,44
2023-02-13T14:54:53.896Z,48
2023-02-13T14:55:54.493Z,48
2023-02-13T14:56:55.324Z,44
2023-02-13T14:57:55.973Z,44
2023-02-13T14:58:56.554Z,48
2023-02-13T14:59:57.148Z,44
2023-02-13T15:00:58.162Z,44
2023-02-13T15:01:59.070Z,44
2023-02-13T15:02:59.657Z,44
2023-02-13T15:04:00.326Z,44
2023-02-13T15:05:00.928Z,44
2023-02-13T15:06:01.523Z,44
2023-02-13T15:07:02.183Z,44
2023-02-13T15:08:02.777Z,44
2023-02-13T15:09:03.442Z,40
2023-02-13T15:10:04.033Z,44
2023-02-13T15:11:04.630Z,44
2023-02-13T15:12:05.291Z,40
2023-02-13T15:13:05.887Z,44
2023-02-13T15:14:06.501Z,44
2023-02-13T15:15:07.088Z,40
2023-02-13T15:16:07.726Z,40
2023-02-13T15:17:08.366Z,36
2023-02-13T15:18:09.015Z,36
2023-02-13T15:19:09.614Z,32
2023-02-13T15:20:10.218Z,28
2023-02-13T15:21:10.818Z,28
2023-02-13T15:22:11.416Z,28
2023-02-13T15:23:12.011Z,32
2023-02-13T15:24:12.612Z,32
2023-02-13T15:25:13.284Z,32
2023-02-13T15:26:13.889Z,24
2023-02-13T15:27:14.484Z,28
2023-02-13T15:28:15.091Z,28
2023-02-13T15:29:25.911Z,28
2023-02-13T15:30:17.374Z,28
2023-02-13T15:31:18.031Z,28
2023-02-13T15:32:18.677Z,28
2023-02-13T15:33:19.289Z,28
2023-02-13T15:34:19.936Z,28
2023-02-13T15:35:20.585Z,28
2023-02-13T15:36:21.191Z,28
2023-02-13T15:37:21.849Z,24
2023-02-13T15:38:22.447Z,28
2023-02-13T15:39:23.115Z,28
2023-02-13T15:40:23.710Z,24
2023-02-13T15:41:24.312Z,28
2023-02-13T15:42:24.920Z,24
2023-02-13T15:43:25.503Z,24
2023-02-13T15:44:26.107Z,20
2023-02-13T15:45:26.779Z,24
2023-02-13T15:46:27.508Z,24
2023-02-13T15:47:28.131Z,24
2023-02-13T15:48:28.736Z,24
2023-02-13T15:49:29.343Z,28
2023-02-13T15:50:29.958Z,28
2023-02-13T15:51:30.630Z,24
2023-02-13T15:52:31.254Z,28
2023-02-13T15:53:31.878Z,28
2023-02-13T15:54:32.478Z,32
2023-02-13T15:55:33.080Z,32
2023-02-13T15:56:33.679Z,32
2023-02-13T15:57:34.362Z,32
2023-02-13T15:58:35.014Z,36
2023-02-13T15:59:35.665Z,32
2023-02-13T16:00:36.263Z,32
2023-02-13T16:01:36.938Z,36
2023-02-13T16:02:37.594Z,32
2023-02-13T16:03:38.202Z,32
2023-02-13T16:04:39.670Z,32
2023-02-13T16:05:41.168Z,36
2023-02-13T16:06:41.896Z,32
2023-02-13T16:07:42.495Z,32
2023-02-13T16:08:43.090Z,32
2023-02-13T16:09:43.689Z,36
2023-02-13T16:10:44.294Z,36
2023-02-13T16:11:44.892Z,40
2023-02-13T16:12:45.499Z,36
2023-02-13T16:13:46.096Z,36
2023-02-13T16:14:46.699Z,32
2023-02-13T16:15:47.347Z,40
2023-02-13T16:16:47.943Z,40
2023-02-13T16:17:48.545Z,36
2023-02-13T16:18:49.205Z,40
2023-02-13T16:19:49.810Z,40
2023-02-13T16:20:50.406Z,40
2023-02-13T16:21:51.009Z,40
2023-02-13T16:22:51.612Z,36
2023-02-13T16:23:52.216Z,40
2023-02-13T16:24:52.821Z,36
2023-02-13T16:25:53.409Z,36
2023-02-13T16:26:54.017Z,44
2023-02-13T16:27:54.630Z,44
2023-02-13T16:28:55.215Z,36
2023-02-13T16:29:55.875Z,48
2023-02-13T16:30:56.806Z,40